Time;durP1;ratioP1;P1;durP2;ratioP2;P2;SDS_P1;SDS_P2;PMS_P1;PMS_P2;Temp;Humidity;BMP_temperature;BMP_pressure;BME280_temperature;BME280_humidity;BME280_pressure;Samples;Min_cycle;Max_cycle;Signal;HPM_P1;HPM_P2
2022/10/17 00:02:16;;;;;;;;;;;;;;;20.90;30.48;99239.13;4919390;29;1915;-85
2022/10/17 00:04:41;;;;;;;;;;;;;;;21.10;29.95;99248.75;4918822;29;1227;-85
2022/10/17 00:07:06;;;;;;;;;;;;;;;21.47;28.90;99244.50;4920919;29;729;-85
2022/10/17 00:09:32;;;;;;;;;;;;;;;20.75;30.15;99239.16;4922431;29;720;-84
2022/10/17 00:11:57;;;;;;;;;;;;;;;20.62;30.56;99246.47;4921244;29;1114;-85
2022/10/17 00:14:23;;;;;;;;;;;;;;;20.56;30.31;99248.13;4905274;29;913;-85
2022/10/17 00:16:48;;;;;;;;;;;;;;;20.69;30.49;99252.13;4921050;29;1119;-85
2022/10/17 00:19:14;;;;;;;;;;;;;;;21.10;29.78;99260.06;4920933;29;909;-85
2022/10/17 00:21:39;;;;;;;;;;;;;;;21.16;29.82;99258.41;4905418;29;1130;-85
2022/10/17 00:24:05;;;;;;;;;;;;;;;20.99;29.68;99253.66;4901663;29;1899;-85
2022/10/17 00:26:30;;;;;;;;;;;;;;;20.68;30.50;99261.03;4902301;29;777;-85
2022/10/17 00:28:56;;;;;;;;;;;;;;;20.68;30.32;99250.53;4886286;29;1129;-85
2022/10/17 00:31:21;;;;;;;;;;;;;;;20.90;30.10;99250.44;4886540;29;1185;-85
2022/10/17 00:33:48;;;;;;;;;;;;;;;20.87;30.25;99246.41;4886643;29;1142;-85
2022/10/17 00:36:18;;;;;;;;;;;;;;;21.07;29.73;99249.53;4886713;29;1300;-85
2022/10/17 00:38:43;;;;;;;;;;;;;;;21.17;29.90;99247.88;4886030;29;1437;-84
2022/10/17 00:41:09;;;;;;;;;;;;;;;21.13;29.53;99242.22;4886722;29;1269;-85
2022/10/17 00:44:10;;;;;;;;;;;;;;;21.08;29.82;99242.66;4901935;29;1974;-85
2022/10/17 00:46:36;;;;;;;;;;;;;;;20.92;30.01;99242.34;4864662;29;1448;-85
2022/10/17 00:49:03;;;;;;;;;;;;;;;20.84;30.21;99240.78;4848856;29;1211;-85
2022/10/17 00:51:49;;;;;;;;;;;;;;;20.75;30.20;99236.34;4849192;29;774;-84
2022/10/17 00:54:15;;;;;;;;;;;;;;;21.09;29.86;99235.81;4863793;29;1213;-85
2022/10/17 00:56:40;;;;;;;;;;;;;;;21.45;29.21;99232.78;4849305;29;1148;-84
2022/10/17 00:59:06;;;;;;;;;;;;;;;21.32;29.03;99241.75;4848859;29;1131;-84
2022/10/17 01:01:31;;;;;;;;;;;;;;;20.81;30.10;99237.53;4864177;29;1099;-84
2022/10/17 01:03:57;;;;;;;;;;;;;;;20.67;30.26;99243.22;4848569;29;1965;-84
2022/10/17 01:06:22;;;;;;;;;;;;;;;20.74;30.57;99237.56;4864198;29;789;-85
2022/10/17 01:08:48;;;;;;;;;;;;;;;21.09;29.65;99241.47;4863727;29;933;-85
2022/10/17 01:11:18;;;;;;;;;;;;;;;21.33;29.22;99232.03;4864178;29;785;-84
2022/10/17 01:13:59;;;;;;;;;;;;;;;21.06;29.35;99231.75;4864061;29;1141;-84
2022/10/17 01:16:24;;;;;;;;;;;;;;;20.99;29.76;99231.81;4864259;29;777;-84
2022/10/17 01:18:52;;;;;;;;;;;;;;;20.64;30.10;99232.75;4863603;29;1558;-85
2022/10/17 01:21:32;;;;;;;;;;;;;;;20.77;30.13;99228.25;4911226;29;1031;-84
2022/10/17 01:24:16;;;;;;;;;;;;;;;20.67;29.92;99231.91;4889551;29;1973;-85
2022/10/17 01:26:54;;;;;;;;;;;;;;;20.89;29.86;99229.03;4920991;29;1249;-85
2022/10/17 01:29:42;;;;;;;;;;;;;;;21.09;29.40;99230.16;4882537;29;1282;-84
2022/10/17 01:32:24;;;;;;;;;;;;;;;21.00;29.34;99233.41;4882186;29;1158;-84
2022/10/17 01:34:54;;;;;;;;;;;;;;;20.90;29.59;99241.94;4866580;29;936;-84
2022/10/17 01:37:20;;;;;;;;;;;;;;;20.83;29.84;99239.13;4866756;29;1317;-86
2022/10/17 01:40:06;;;;;;;;;;;;;;;20.89;29.62;99237.53;4882069;29;1118;-85
2022/10/17 01:42:46;;;;;;;;;;;;;;;21.19;29.16;99243.44;4881972;29;1911;-84
2022/10/17 01:45:13;;;;;;;;;;;;;;;21.26;28.93;99243.38;4866377;29;831;-84
2022/10/17 01:47:39;;;;;;;;;;;;;;;20.85;29.83;99237.53;4866659;29;1072;-85
2022/10/17 01:50:12;;;;;;;;;;;;;;;20.79;30.04;99244.81;4866364;29;1052;-84
2022/10/17 01:52:39;;;;;;;;;;;;;;;20.93;29.26;99249.59;4866885;29;1162;-85
2022/10/17 01:55:08;;;;;;;;;;;;;;;20.76;29.64;99243.59;4866128;29;800;-85
2022/10/17 01:57:38;;;;;;;;;;;;;;;20.70;30.07;99248.06;4865994;29;835;-85
2022/10/17 02:00:05;;;;;;;;;;;;;;;21.23;29.05;99247.03;4877465;29;1231;-84
2022/10/17 02:02:38;;;;;;;;;;;;;;;21.23;28.93;99249.88;4920196;29;1911;-85
2022/10/17 02:05:04;;;;;;;;;;;;;;;21.23;28.86;99258.34;4904566;29;1239;-84
2022/10/17 02:07:29;;;;;;;;;;;;;;;20.99;29.44;99262.13;4904710;29;744;-85
2022/10/17 02:09:54;;;;;;;;;;;;;;;20.80;29.58;99257.75;4920335;29;1295;-84
2022/10/17 02:12:39;;;;;;;;;;;;;;;20.89;29.39;99260.16;4905001;29;1305;-85
2022/10/17 02:15:24;;;;;;;;;;;;;;;20.68;29.88;99261.84;4904386;29;1382;-85
2022/10/17 02:17:57;;;;;;;;;;;;;;;21.12;29.02;99259.63;4904488;29;1413;-85
2022/10/17 02:20:35;;;;;;;;;;;;;;;21.26;28.93;99279.38;4888175;29;1301;-84
2022/10/17 02:23:11;;;;;;;;;;;;;;;21.18;28.82;99278.59;4887524;29;1910;-85
2022/10/17 02:25:36;;;;;;;;;;;;;;;20.89;29.46;99271.47;4887616;29;984;-85
2022/10/17 02:28:08;;;;;;;;;;;;;;;20.85;29.40;99277.13;4918828;29;802;-85
2022/10/17 02:30:39;;;;;;;;;;;;;;;20.91;29.34;99274.69;4887052;29;1204;-84
2022/10/17 02:33:06;;;;;;;;;;;;;;;20.96;29.18;99282.75;4887514;29;1111;-85
2022/10/17 02:35:32;;;;;;;;;;;;;;;21.20;28.76;99281.84;4887838;29;1140;-84
2022/10/17 02:37:57;;;;;;;;;;;;;;;21.18;28.93;99278.59;4887503;29;1169;-85
2022/10/17 02:40:23;;;;;;;;;;;;;;;21.08;28.85;99290.78;4887304;29;1339;-85
2022/10/17 02:42:50;;;;;;;;;;;;;;;20.75;29.61;99281.59;4887730;29;1964;-85
2022/10/17 02:45:15;;;;;;;;;;;;;;;20.95;29.11;99281.13;4887336;29;1118;-85
2022/10/17 02:48:01;;;;;;;;;;;;;;;20.81;29.42;99277.13;4902767;29;753;-85
2022/10/17 02:50:30;;;;;;;;;;;;;;;20.76;29.18;99283.22;4918449;29;1088;-84
2022/10/17 02:56:34;;;;;;;;;;;;;;;21.13;28.92;99287.50;4880871;29;611;-84
2022/10/17 02:58:59;;;;;;;;;;;;;;;20.95;28.99;99283.97;4880841;29;1116;-84
2022/10/17 03:01:25;;;;;;;;;;;;;;;20.62;29.65;99296.56;4881070;29;1224;-84
2022/10/17 03:03:51;;;;;;;;;;;;;;;20.75;29.61;99284.44;4880940;29;1911;-84
2022/10/17 03:06:16;;;;;;;;;;;;;;;20.44;29.98;99297.38;4880611;29;1255;-84
2022/10/17 03:08:44;;;;;;;;;;;;;;;20.81;29.24;99298.97;4880700;29;1237;-85
2022/10/17 03:11:09;;;;;;;;;;;;;;;21.12;28.96;99297.22;4880653;29;900;-85
2022/10/17 03:13:35;;;;;;;;;;;;;;;21.31;28.41;99298.81;4865259;29;1248;-85
2022/10/17 03:16:00;;;;;;;;;;;;;;;21.05;28.86;99305.75;4880995;29;1181;-84
2022/10/17 03:18:26;;;;;;;;;;;;;;;20.72;29.35;99296.53;4880691;29;1233;-84
2022/10/17 03:20:56;;;;;;;;;;;;;;;20.55;29.83;99298.19;4880891;29;1067;-85
2022/10/17 03:23:21;;;;;;;;;;;;;;;20.73;29.66;99300.22;4862075;29;1990;-85
2022/10/17 03:25:47;;;;;;;;;;;;;;;20.99;28.93;99294.06;4877558;29;1167;-85
2022/10/17 03:28:14;;;;;;;;;;;;;;;21.16;28.76;99298.03;4825256;29;1120;-85
2022/10/17 03:30:39;;;;;;;;;;;;;;;20.97;28.94;99301.34;4836481;29;1228;-84
2022/10/17 03:33:05;;;;;;;;;;;;;;;20.75;29.40;99295.75;4843530;29;1230;-85
2022/10/17 03:35:31;;;;;;;;;;;;;;;20.76;29.39;99294.53;4843598;29;1301;-84
2022/10/17 03:37:57;;;;;;;;;;;;;;;20.58;29.81;99299.44;4843760;29;1126;-85
2022/10/17 03:40:25;;;;;;;;;;;;;;;20.41;29.82;99291.72;4847540;29;1131;-85
2022/10/17 03:42:51;;;;;;;;;;;;;;;20.72;29.71;99296.53;4867909;29;1986;-85
2022/10/17 03:45:17;;;;;;;;;;;;;;;21.08;29.20;99302.91;4884225;29;1269;-85
2022/10/17 03:47:44;;;;;;;;;;;;;;;21.31;28.61;99305.28;4868831;29;1225;-85
2022/10/17 03:50:09;;;;;;;;;;;;;;;20.92;28.95;99302.56;4868531;29;1195;-84
2022/10/17 03:52:37;;;;;;;;;;;;;;;20.91;29.07;99305.81;4868581;29;1333;-85
2022/10/17 03:55:02;;;;;;;;;;;;;;;20.94;29.17;99307.81;4868587;29;1275;-84
2022/10/17 03:57:28;;;;;;;;;;;;;;;21.03;29.14;99303.31;4852594;29;1564;-86
2022/10/17 03:59:54;;;;;;;;;;;;;;;21.30;28.54;99309.31;4866185;29;1170;-85
2022/10/17 04:02:20;;;;;;;;;;;;;;;21.25;28.83;99306.91;4865658;29;1911;-85
2022/10/17 04:04:46;;;;;;;;;;;;;;;21.12;28.70;99302.91;4847728;29;1529;-84
2022/10/17 04:07:11;;;;;;;;;;;;;;;21.11;28.72;99309.78;4819684;29;1194;-84
2022/10/17 04:09:41;;;;;;;;;;;;;;;20.79;29.52;99305.03;4820805;29;1134;-85
2022/10/17 04:12:11;;;;;;;;;;;;;;;20.81;29.40;99299.75;4864945;29;1574;-85
2022/10/17 04:14:37;;;;;;;;;;;;;;;20.88;29.33;99298.94;4819679;29;1191;-84
2022/10/17 04:17:03;;;;;;;;;;;;;;;21.03;29.26;99305.34;4849863;29;1292;-84
2022/10/17 04:19:29;;;;;;;;;;;;;;;21.35;28.40;99304.44;4863588;29;1555;-84
2022/10/17 04:21:55;;;;;;;;;;;;;;;21.24;28.51;99302.44;4898920;29;1187;-84
2022/10/17 04:24:21;;;;;;;;;;;;;;;20.94;28.86;99307.81;4920947;29;1922;-84
2022/10/17 04:26:56;;;;;;;;;;;;;;;20.79;29.23;99301.41;4905294;29;1240;-85
2022/10/17 04:29:27;;;;;;;;;;;;;;;20.97;29.18;99312.66;4905567;29;1176;-84
2022/10/17 04:32:00;;;;;;;;;;;;;;;21.24;28.72;99313.78;4904977;29;1338;-84
2022/10/17 04:34:51;;;;;;;;;;;;;;;21.11;28.39;99306.94;4883205;29;1246;-84
2022/10/17 04:37:20;;;;;;;;;;;;;;;21.03;28.76;99317.47;4886004;29;1542;-84
2022/10/17 04:39:48;;;;;;;;;;;;;;;20.85;28.72;99321.59;4901201;29;1453;-84
2022/10/17 04:42:13;;;;;;;;;;;;;;;20.66;28.97;99320.00;4901893;29;1911;-84
2022/10/17 04:44:39;;;;;;;;;;;;;;;21.33;28.14;99331.13;4886211;29;1247;-84
2022/10/17 04:47:05;;;;;;;;;;;;;;;21.45;28.25;99329.06;4901880;29;1110;-84
2022/10/17 04:49:30;;;;;;;;;;;;;;;21.13;28.35;99338.47;4886098;29;1251;-84
2022/10/17 04:52:05;;;;;;;;;;;;;;;20.88;28.84;99343.38;4885532;29;1124;-84
2022/10/17 04:54:36;;;;;;;;;;;;;;;20.70;29.26;99338.59;4899550;29;1672;-84
2022/10/17 04:57:06;;;;;;;;;;;;;;;20.51;29.58;99347.50;4885487;29;1519;-84
2022/10/17 04:59:32;;;;;;;;;;;;;;;20.99;29.09;99352.69;4882417;29;1552;-84
2022/10/17 05:02:12;;;;;;;;;;;;;;;21.44;28.09;99341.59;4866854;29;1984;-84
2022/10/17 05:04:37;;;;;;;;;;;;;;;21.85;27.29;99353.13;4882840;29;1222;-84
2022/10/17 05:07:03;;;;;;;;;;;;;;;21.47;27.78;99346.47;4867502;29;1250;-84
2022/10/17 05:09:44;;;;;;;;;;;;;;;21.10;28.65;99355.47;4865113;29;1608;-85
2022/10/17 05:12:09;;;;;;;;;;;;;;;20.81;29.07;99356.34;4879310;29;1797;-84
2022/10/17 05:14:36;;;;;;;;;;;;;;;20.88;29.32;99366.03;4901519;29;1866;-84
2022/10/17 05:17:02;;;;;;;;;;;;;;;21.24;28.34;99361.91;4920097;29;1169;-84
2022/10/17 05:19:28;;;;;;;;;;;;;;;21.41;28.45;99370.75;4919723;29;1246;-83
2022/10/17 05:21:54;;;;;;;;;;;;;;;21.44;28.11;99359.41;4919626;29;1357;-84
2022/10/17 05:24:19;;;;;;;;;;;;;;;21.10;28.50;99361.94;4919785;29;1918;-84
2022/10/17 05:26:48;;;;;;;;;;;;;;;21.14;28.58;99370.41;4919811;29;1142;-84
2022/10/17 05:29:14;;;;;;;;;;;;;;;20.90;29.03;99380.59;4919412;29;1221;-84
2022/10/17 05:31:45;;;;;;;;;;;;;;;20.74;29.16;99383.84;4902836;29;1245;-84
2022/10/17 05:34:11;;;;;;;;;;;;;;;20.48;29.83;99382.25;4922996;29;1128;-84
2022/10/17 05:36:36;;;;;;;;;;;;;;;21.01;28.78;99385.00;4907217;29;1280;-84
2022/10/17 05:39:03;;;;;;;;;;;;;;;21.40;28.31;99386.94;4922358;29;978;-84
2022/10/17 05:41:31;;;;;;;;;;;;;;;21.09;28.91;99394.28;4907894;29;1214;-84
2022/10/17 05:43:56;;;;;;;;;;;;;;;20.96;28.91;99402.38;4906989;29;1986;-84
2022/10/17 05:46:42;;;;;;;;;;;;;;;20.97;28.66;99391.88;4940486;29;902;-84
2022/10/17 05:52:42;;;;;;;;;;;;;;;21.24;28.56;99417.69;4919526;29;800;-84
2022/10/17 05:55:11;;;;;;;;;;;;;;;21.22;28.61;99415.28;4885161;29;1197;-84
2022/10/17 05:57:37;;;;;;;;;;;;;;;21.20;28.42;99411.25;4885228;29;1468;-84
2022/10/17 06:00:07;;;;;;;;;;;;;;;21.02;28.75;99416.94;4900734;29;1282;-84
2022/10/17 06:02:46;;;;;;;;;;;;;;;21.04;28.92;99420.97;4891636;29;1907;-84
2022/10/17 06:05:14;;;;;;;;;;;;;;;20.70;29.60;99429.09;4893264;29;1641;-84
2022/10/17 06:07:39;;;;;;;;;;;;;;;20.69;29.48;99433.13;4897597;29;1374;-84
2022/10/17 06:10:06;;;;;;;;;;;;;;;21.06;29.04;99440.38;4887271;29;1520;-84
2022/10/17 06:12:31;;;;;;;;;;;;;;;21.32;28.64;99437.13;4887853;29;1194;-84
2022/10/17 06:14:57;;;;;;;;;;;;;;;21.19;28.43;99438.75;4903566;29;1510;-84
2022/10/17 06:17:24;;;;;;;;;;;;;;;20.99;29.15;99446.06;4887968;29;1363;-84
2022/10/17 06:19:49;;;;;;;;;;;;;;;20.98;28.91;99444.41;4894363;29;1486;-83
2022/10/17 06:22:15;;;;;;;;;;;;;;;20.76;29.36;99443.63;4922487;29;1898;-84
2022/10/17 06:24:41;;;;;;;;;;;;;;;21.02;29.00;99450.88;4923523;29;1195;-84
2022/10/17 06:27:07;;;;;;;;;;;;;;;21.16;28.64;99445.22;4918860;29;1314;-84
2022/10/17 06:29:32;;;;;;;;;;;;;;;21.50;28.28;99453.22;4903105;29;1250;-84
2022/10/17 06:31:59;;;;;;;;;;;;;;;20.97;29.05;99459.78;4916948;29;1700;-84
2022/10/17 06:34:25;;;;;;;;;;;;;;;20.87;29.22;99460.59;4899299;29;1842;-84
2022/10/17 06:36:51;;;;;;;;;;;;;;;20.79;29.38;99460.63;4886457;29;1916;-84
2022/10/17 06:39:18;;;;;;;;;;;;;;;20.83;29.69;99454.13;4889143;29;1213;-84
2022/10/17 06:41:52;;;;;;;;;;;;;;;21.36;28.67;99464.63;4884914;29;1147;-83
2022/10/17 06:44:18;;;;;;;;;;;;;;;21.41;28.40;99467.03;4899488;29;1930;-84
2022/10/17 06:47:08;;;;;;;;;;;;;;;21.04;29.06;99471.13;4883821;29;1197;-84
2022/10/17 06:49:33;;;;;;;;;;;;;;;20.96;29.22;99480.81;4883765;29;1796;-84
2022/10/17 06:52:38;;;;;;;;;;;;;;;20.80;29.76;99476.38;4861893;29;772;-84
2022/10/17 06:55:26;;;;;;;;;;;;;;;21.18;29.13;99471.06;4861992;29;882;-83
2022/10/17 06:58:27;;;;;;;;;;;;;;;21.29;29.08;99480.34;4843803;29;939;-84
2022/10/17 07:01:10;;;;;;;;;;;;;;;21.08;29.32;99474.72;4843362;29;1416;-84
2022/10/17 07:03:36;;;;;;;;;;;;;;;20.90;29.54;99477.59;4843031;29;1907;-84
2022/10/17 07:06:02;;;;;;;;;;;;;;;20.96;29.60;99483.66;4828148;29;1255;-84
2022/10/17 07:08:28;;;;;;;;;;;;;;;20.81;29.90;99486.47;4843574;29;838;-84
2022/10/17 07:10:53;;;;;;;;;;;;;;;20.87;30.04;99483.22;4843569;29;1296;-84
2022/10/17 07:13:19;;;;;;;;;;;;;;;20.90;29.82;99488.09;4843364;29;1146;-84
2022/10/17 07:15:44;;;;;;;;;;;;;;;21.10;29.57;99489.31;4843691;29;1281;-84
2022/10/17 07:18:10;;;;;;;;;;;;;;;21.47;29.06;99485.22;4847202;29;1199;-84
2022/10/17 07:20:36;;;;;;;;;;;;;;;21.02;29.78;99480.00;4847374;29;1088;-83
2022/10/17 07:23:01;;;;;;;;;;;;;;;20.80;30.13;99490.50;4849949;29;1982;-84
2022/10/17 07:25:27;;;;;;;;;;;;;;;20.83;30.34;99488.06;4855464;29;1596;-84
2022/10/17 07:27:58;;;;;;;;;;;;;;;20.62;30.87;99488.88;4842374;29;1609;-83
2022/10/17 07:30:23;;;;;;;;;;;;;;;20.86;30.59;99490.91;4846525;29;1595;-84
2022/10/17 07:32:53;;;;;;;;;;;;;;;21.17;30.05;99496.97;4850047;29;1168;-83
2022/10/17 07:35:19;;;;;;;;;;;;;;;21.29;29.71;99488.84;4895279;29;1800;-84
2022/10/17 07:37:44;;;;;;;;;;;;;;;20.99;30.13;99483.66;4871754;29;1115;-84
2022/10/17 07:40:12;;;;;;;;;;;;;;;20.79;30.95;99483.25;4902839;29;1608;-84
2022/10/17 07:42:37;;;;;;;;;;;;;;;20.93;30.26;99492.94;4871854;29;1990;-84
2022/10/17 07:45:04;;;;;;;;;;;;;;;20.58;31.05;99477.59;4887099;29;1360;-83
2022/10/17 07:47:34;;;;;;;;;;;;;;;20.76;30.71;99481.22;4904193;29;1803;-83
2022/10/17 07:50:00;;;;;;;;;;;;;;;20.93;30.83;99493.72;4889850;29;1454;-84
2022/10/17 07:52:25;;;;;;;;;;;;;;;21.12;30.26;99489.69;4905843;29;1234;-83
2022/10/17 07:54:51;;;;;;;;;;;;;;;21.29;30.35;99488.84;4905705;29;757;-83
2022/10/17 07:57:16;;;;;;;;;;;;;;;21.03;30.38;99487.25;4905781;29;816;-84
2022/10/17 07:59:42;;;;;;;;;;;;;;;20.93;30.59;99484.44;4905688;29;745;-84
2022/10/17 08:02:09;;;;;;;;;;;;;;;21.05;30.33;99484.03;4921690;29;801;-84
2022/10/17 08:04:35;;;;;;;;;;;;;;;20.97;30.42;99483.22;4910663;29;1914;-84
2022/10/17 08:07:00;;;;;;;;;;;;;;;20.74;31.03;99480.81;4941135;29;804;-84
2022/10/17 08:09:26;;;;;;;;;;;;;;;20.71;31.11;99484.44;4932537;29;1727;-84
2022/10/17 08:11:51;;;;;;;;;;;;;;;21.12;30.74;99484.03;4938380;29;1129;-84
2022/10/17 08:14:17;;;;;;;;;;;;;;;21.36;30.44;99492.94;4937927;29;815;-84
2022/10/17 08:16:42;;;;;;;;;;;;;;;21.10;30.50;99488.50;4937961;29;816;-84
2022/10/17 08:19:10;;;;;;;;;;;;;;;20.75;31.43;99488.09;4937471;29;736;-84
2022/10/17 08:21:35;;;;;;;;;;;;;;;20.78;31.08;99481.63;4937927;29;772;-84
2022/10/17 08:24:01;;;;;;;;;;;;;;;20.81;31.15;99480.81;4906366;29;1969;-84
2022/10/17 08:26:27;;;;;;;;;;;;;;;20.73;31.17;99484.88;4906447;29;1204;-84
2022/10/17 08:28:52;;;;;;;;;;;;;;;21.17;30.59;99492.13;4916856;29;1586;-84
2022/10/17 08:31:18;;;;;;;;;;;;;;;21.15;30.89;99500.22;4890369;29;1818;-84
2022/10/17 08:33:44;;;;;;;;;;;;;;;21.14;30.87;99497.75;4906067;29;1130;-84
2022/10/17 08:36:11;;;;;;;;;;;;;;;20.96;31.21;99497.78;4923578;29;1791;-84
2022/10/17 08:38:38;;;;;;;;;;;;;;;20.88;31.37;99491.34;4940219;29;819;-84
2022/10/17 08:41:06;;;;;;;;;;;;;;;20.92;31.33;99492.13;4904050;29;2156;-84
2022/10/17 08:43:50;;;;;;;;;;;;;;;21.01;31.13;99488.91;4901747;29;1975;-83
2022/10/17 08:46:16;;;;;;;;;;;;;;;20.95;31.35;99491.31;4919796;29;1881;-83
2022/10/17 08:48:42;;;;;;;;;;;;;;;20.95;31.49;99496.97;4903274;29;1905;-84
2022/10/17 08:51:16;;;;;;;;;;;;;;;20.96;31.61;99503.44;4920368;29;749;-84
2022/10/17 08:53:44;;;;;;;;;;;;;;;21.49;30.86;99496.94;4889148;29;1233;-84
2022/10/17 08:56:29;;;;;;;;;;;;;;;21.10;31.21;99502.66;4873732;29;1115;-84
2022/10/17 08:58:54;;;;;;;;;;;;;;;20.77;31.78;99499.78;4889421;29;801;-84
2022/10/17 09:01:33;;;;;;;;;;;;;;;20.71;32.06;99503.44;4889481;29;1315;-84
2022/10/17 09:04:11;;;;;;;;;;;;;;;20.91;31.42;99506.69;4903734;29;1915;-84
2022/10/17 09:06:37;;;;;;;;;;;;;;;21.11;31.17;99509.91;4920626;29;783;-84
2022/10/17 09:09:15;;;;;;;;;;;;;;;21.02;31.03;99510.31;4920419;29;748;-84
2022/10/17 09:12:01;;;;;;;;;;;;;;;21.05;31.52;99506.69;4912029;29;792;-84
2022/10/17 09:14:26;;;;;;;;;;;;;;;21.20;31.21;99502.63;4940425;29;736;-84
2022/10/17 09:16:52;;;;;;;;;;;;;;;20.98;31.57;99501.00;4941440;29;752;-84
2022/10/17 09:19:20;;;;;;;;;;;;;;;21.01;31.84;99501.03;4917443;29;2017;-84
2022/10/17 09:21:48;;;;;;;;;;;;;;;20.92;31.71;99491.31;4905696;29;1238;-85
2022/10/17 09:24:18;;;;;;;;;;;;;;;20.93;31.46;99492.94;4905244;29;1918;-84
2022/10/17 09:26:44;;;;;;;;;;;;;;;20.78;31.72;99498.59;4921281;29;1132;-84
2022/10/17 09:29:20;;;;;;;;;;;;;;;21.00;31.60;99499.41;4920316;29;1872;-85
2022/10/17 09:32:24;;;;;;;;;;;;;;;21.14;31.47;99492.94;4920814;29;1105;-84
2022/10/17 09:34:50;;;;;;;;;;;;;;;21.17;31.52;99502.63;4848074;29;1307;-84
2022/10/17 09:37:16;;;;;;;;;;;;;;;20.97;31.63;99490.91;4848559;29;1114;-84
2022/10/17 09:39:42;;;;;;;;;;;;;;;20.89;31.85;99492.16;4847870;29;922;-85
2022/10/17 09:42:09;;;;;;;;;;;;;;;20.86;31.65;99487.28;4848355;29;824;-84
2022/10/17 09:44:35;;;;;;;;;;;;;;;20.76;31.82;99484.03;4861568;29;1923;-84
2022/10/17 09:47:19;;;;;;;;;;;;;;;20.88;31.76;99490.50;4866778;29;871;-82
2022/10/17 09:49:46;;;;;;;;;;;;;;;21.55;31.10;99489.63;4880538;29;1067;-72
2022/10/17 09:52:13;;;;;;;;;;;;;;;21.39;31.23;99498.56;4880596;29;1065;-72
2022/10/17 09:54:43;;;;;;;;;;;;;;;21.50;31.43;99482.38;4880108;29;847;-72
2022/10/17 09:57:10;;;;;;;;;;;;;;;21.69;30.95;99483.94;4864896;29;1665;-74
2022/10/17 09:59:42;;;;;;;;;;;;;;;21.45;31.30;99485.63;4879318;29;2232;-73
2022/10/17 10:02:08;;;;;;;;;;;;;;;21.22;32.04;99483.22;4866046;29;1081;-80
2022/10/17 10:04:34;;;;;;;;;;;;;;;21.18;31.79;99504.25;4869787;29;1984;-79
2022/10/17 10:07:00;;;;;;;;;;;;;;;21.45;31.64;99494.13;4938847;29;1509;-78
2022/10/17 10:09:26;;;;;;;;;;;;;;;21.76;31.21;99492.41;4938855;29;1576;-77
2022/10/17 10:11:53;;;;;;;;;;;;;;;21.59;31.56;99490.44;4921822;29;1526;-77
2022/10/17 10:14:22;;;;;;;;;;;;;;;21.67;31.43;99491.22;4921218;29;2078;-75
2022/10/17 10:16:48;;;;;;;;;;;;;;;21.92;31.36;99485.47;4934421;29;2035;-77
2022/10/17 10:19:32;;;;;;;;;;;;;;;21.71;31.53;99487.19;4939127;29;932;-79
2022/10/17 10:21:58;;;;;;;;;;;;;;;21.52;32.01;99479.13;4922676;29;870;-79
2022/10/17 10:24:25;;;;;;;;;;;;;;;21.19;32.42;99484.03;4915306;29;1919;-79
2022/10/17 10:26:54;;;;;;;;;;;;;;;21.43;31.89;99492.91;4918942;29;1043;-75
2022/10/17 10:29:19;;;;;;;;;;;;;;;21.65;31.64;99477.47;4902787;29;1014;-75
2022/10/17 10:31:45;;;;;;;;;;;;;;;21.66;31.79;99472.59;4927946;29;1726;-76
2022/10/17 10:34:27;;;;;;;;;;;;;;;21.70;31.96;99474.19;4920832;29;1694;-74
2022/10/17 10:36:56;;;;;;;;;;;;;;;21.94;31.82;99472.50;4936412;29;1484;-74
2022/10/17 10:39:32;;;;;;;;;;;;;;;22.04;31.47;99476.50;4938247;29;939;-73
2022/10/17 10:41:58;;;;;;;;;;;;;;;21.80;32.15;99467.69;4921300;29;957;-74
2022/10/17 10:44:24;;;;;;;;;;;;;;;21.78;32.62;99470.13;4919646;29;2062;-74
2022/10/17 10:47:28;;;;;;;;;;;;;;;21.91;32.47;99473.31;4921217;29;1117;-71
2022/10/17 10:50:12;;;;;;;;;;;;;;;21.46;33.35;99469.44;4880263;29;964;-78
2022/10/17 10:52:40;;;;;;;;;;;;;;;21.14;33.74;99464.63;4865129;29;1087;-80
2022/10/17 10:55:13;;;;;;;;;;;;;;;21.24;33.16;99472.31;4868810;29;1528;-80
2022/10/17 10:57:39;;;;;;;;;;;;;;;21.30;33.08;99461.41;4862467;29;1271;-80
2022/10/17 11:00:18;;;;;;;;;;;;;;;21.00;33.33;99461.81;4880702;29;951;-80
2022/10/17 11:02:43;;;;;;;;;;;;;;;21.10;33.14;99463.81;4880626;29;1903;-80
2022/10/17 11:05:17;;;;;;;;;;;;;;;21.17;32.76;99463.00;4879077;29;1977;-80
2022/10/17 11:07:48;;;;;;;;;;;;;;;21.18;32.54;99465.41;4880734;29;1025;-80
2022/10/17 11:10:16;;;;;;;;;;;;;;;21.08;32.73;99458.56;4880465;29;948;-80
2022/10/17 11:12:42;;;;;;;;;;;;;;;21.07;32.70;99464.63;4880996;29;809;-80
2022/10/17 11:15:13;;;;;;;;;;;;;;;21.17;32.65;99463.81;4879082;29;2001;-80
2022/10/17 11:17:40;;;;;;;;;;;;;;;21.30;32.08;99458.56;4880955;29;847;-80
2022/10/17 11:20:06;;;;;;;;;;;;;;;21.16;32.22;99461.38;4870508;29;1163;-80
2022/10/17 11:22:33;;;;;;;;;;;;;;;20.93;32.39;99453.31;4899341;29;1981;-80
2022/10/17 11:24:58;;;;;;;;;;;;;;;20.90;32.69;99445.66;4898620;29;1873;-80
2022/10/17 11:27:24;;;;;;;;;;;;;;;20.93;32.25;99444.81;4939287;29;771;-80
2022/10/17 11:29:49;;;;;;;;;;;;;;;21.15;31.83;99437.94;4938182;29;733;-80
2022/10/17 11:32:31;;;;;;;;;;;;;;;20.99;32.17;99441.19;4939233;29;1188;-80
2022/10/17 11:35:02;;;;;;;;;;;;;;;21.20;31.99;99451.69;4918102;29;1873;-80
2022/10/17 11:37:29;;;;;;;;;;;;;;;21.33;32.88;99441.56;4903655;29;769;-80
2022/10/17 11:39:56;;;;;;;;;;;;;;;21.52;32.85;99448.78;4903523;29;1246;-80
2022/10/17 11:42:23;;;;;;;;;;;;;;;21.25;33.41;99448.44;4918962;29;832;-80
2022/10/17 11:44:49;;;;;;;;;;;;;;;21.17;33.12;99441.16;4926388;29;1948;-80
2022/10/17 11:47:33;;;;;;;;;;;;;;;21.22;32.61;99448.44;4918802;29;745;-80
2022/10/17 11:50:04;;;;;;;;;;;;;;;21.09;32.78;99445.25;4925227;29;1960;-80
2022/10/17 11:56:04;;;;;;;;;;;;;;;20.91;32.79;99438.78;4939109;29;685;-80
2022/10/17 11:58:33;;;;;;;;;;;;;;;21.04;32.49;99442.81;4898786;29;904;-80
2022/10/17 12:01:15;;;;;;;;;;;;;;;20.87;32.98;99444.44;4882530;29;1317;-80
2022/10/17 12:03:57;;;;;;;;;;;;;;;21.27;33.15;99445.19;4902159;29;1888;-80
2022/10/17 12:06:38;;;;;;;;;;;;;;;21.47;32.86;99445.56;4849473;29;1023;-80
2022/10/17 12:09:11;;;;;;;;;;;;;;;21.33;33.36;99438.72;4865284;29;1119;-80
2022/10/17 12:11:36;;;;;;;;;;;;;;;21.05;33.57;99444.44;4864068;29;2097;-80
2022/10/17 12:14:01;;;;;;;;;;;;;;;20.97;33.33;99440.78;4864951;29;937;-80
2022/10/17 12:16:33;;;;;;;;;;;;;;;21.04;33.06;99454.13;4864912;29;1187;-80
2022/10/17 12:19:01;;;;;;;;;;;;;;;21.03;32.77;99441.19;4880519;29;1130;-80
2022/10/17 12:21:26;;;;;;;;;;;;;;;21.03;32.77;99453.31;4879314;29;1945;-80
2022/10/17 12:23:52;;;;;;;;;;;;;;;20.93;32.86;99448.47;4864519;29;1970;-80
2022/10/17 12:26:27;;;;;;;;;;;;;;;21.02;32.58;99456.56;4880096;29;800;-80
2022/10/17 12:28:53;;;;;;;;;;;;;;;21.16;32.90;99462.19;4852500;29;1107;-80
2022/10/17 12:31:20;;;;;;;;;;;;;;;21.23;33.14;99456.50;4881130;29;1962;-80
2022/10/17 12:33:51;;;;;;;;;;;;;;;21.37;33.03;99449.25;4867904;29;1111;-80
2022/10/17 12:36:26;;;;;;;;;;;;;;;21.00;33.38;99453.31;4886292;29;844;-80
2022/10/17 12:39:01;;;;;;;;;;;;;;;21.12;32.94;99444.41;4941149;29;804;-80
2022/10/17 12:41:47;;;;;;;;;;;;;;;21.09;32.75;99462.22;4924227;29;1864;-80
2022/10/17 12:44:12;;;;;;;;;;;;;;;20.96;33.15;99450.50;4882837;29;1982;-80
2022/10/17 12:46:50;;;;;;;;;;;;;;;21.01;32.56;99454.94;4883296;29;914;-80
2022/10/17 12:49:34;;;;;;;;;;;;;;;20.85;32.84;99446.06;4883065;29;1270;-80
2022/10/17 12:55:33;;;;;;;;;;;;;;;21.33;32.75;99444.38;4882921;29;1068;-80
2022/10/17 12:58:01;;;;;;;;;;;;;;;21.33;32.76;99450.03;4867300;29;1140;-80
2022/10/17 13:00:26;;;;;;;;;;;;;;;20.94;33.15;99449.31;4882041;29;1932;-80
2022/10/17 13:02:52;;;;;;;;;;;;;;;20.84;33.39;99452.94;4882676;29;1906;-80
2022/10/17 13:05:21;;;;;;;;;;;;;;;20.99;32.87;99454.56;4867160;29;824;-80
2022/10/17 13:07:47;;;;;;;;;;;;;;;20.94;32.68;99450.09;4867157;29;937;-80
2022/10/17 13:10:31;;;;;;;;;;;;;;;21.10;32.66;99452.50;4882109;29;1929;-80
2022/10/17 13:13:00;;;;;;;;;;;;;;;20.88;32.72;99453.72;4867124;29;1308;-80
2022/10/17 13:15:25;;;;;;;;;;;;;;;21.13;32.85;99446.00;4882343;29;894;-80
2022/10/17 13:17:59;;;;;;;;;;;;;;;21.22;32.74;99449.25;4882308;29;869;-80
2022/10/17 13:20:27;;;;;;;;;;;;;;;21.16;32.78;99450.06;4874105;29;1910;-80
2022/10/17 13:22:52;;;;;;;;;;;;;;;20.96;32.85;99450.50;4924707;29;1910;-80
2022/10/17 13:25:18;;;;;;;;;;;;;;;21.01;32.85;99454.94;4923931;29;827;-80
2022/10/17 13:27:44;;;;;;;;;;;;;;;20.74;33.23;99452.53;4908240;29;1224;-80